Weather at Regina International Airport

Public forecast

Using degrees Celsius for public forecast. Weather courtesy of forecast.io.

Current aviation weather report (METAR) for Regina International Airport

Retrieved 2021/05/12 04:00 UTC (60 minutes ago):

CYQR 120400Z 20007KT 15SM FEW130 FEW270 08/M09 A3018 RMK AC1CI1 CI TR SLP234

Aviation forecast (TAF) for Regina International Airport

Retrieved 2021-05-12 00:39 UTC (4 hours ago):

TAF CYQR 112338Z 1200/1224 18008KT P6SM BKN100 FM120400 15006KT P6SM FEW100 FM121600 16010KT P6SM FEW080 FM121900 14010KT P6SM BKN080 RMK NXT FCST BY 120600Z